Time;durP1;ratioP1;P1;durP2;ratioP2;P2;SDS_P1;SDS_P2;PMS_P1;PMS_P2;Temp;Humidity;BMP_temperature;BMP_pressure;BME280_temperature;BME280_humidity;BME280_pressure;Samples;Min_cycle;Max_cycle;Signal;HPM_P1;HPM_P2
2021/10/14 00:00:31;;;;;;;4.05;2.53;;;;;;;-0.54;100.00;93958.41;2107454;28;20031;-88
2021/10/14 00:01:33;;;;;;;3.97;2.88;;;;;;;-0.47;100.00;93960.53;2090846;28;20075;-88
2021/10/14 00:02:34;;;;;;;5.57;3.10;;;;;;;-0.36;100.00;93958.25;2090989;28;20455;-88
2021/10/14 00:03:35;;;;;;;3.03;2.65;;;;;;;-0.41;100.00;93967.09;2099274;28;20086;-90
2021/10/14 00:04:36;;;;;;;3.15;2.83;;;;;;;-0.48;100.00;93958.22;2099370;28;20075;-88
2021/10/14 00:05:38;;;;;;;4.60;3.10;;;;;;;-0.41;100.00;93961.06;2099475;28;20039;-89
2021/10/14 00:06:39;;;;;;;6.07;3.03;;;;;;;-0.41;100.00;93951.34;2099688;28;20028;-90
2021/10/14 00:07:40;;;;;;;3.38;3.08;;;;;;;-0.35;100.00;93960.56;2099317;28;20029;-90
2021/10/14 00:08:41;;;;;;;3.08;2.63;;;;;;;-0.32;100.00;93956.50;2087574;28;20033;-89
2021/10/14 00:09:42;;;;;;;3.30;3.00;;;;;;;-0.36;100.00;93955.63;2090935;28;20033;-89
2021/10/14 00:10:43;;;;;;;3.75;3.38;;;;;;;-0.41;100.00;93963.69;2091350;28;20028;-90
2021/10/14 00:11:45;;;;;;;3.40;2.90;;;;;;;-0.41;100.00;93963.69;2091205;28;20100;-90
2021/10/14 00:12:46;;;;;;;3.08;2.55;;;;;;;-0.43;100.00;93974.53;2107836;28;20142;-89
2021/10/14 00:13:47;;;;;;;3.28;2.58;;;;;;;-0.44;100.00;93961.72;2098608;28;20036;-90
2021/10/14 00:14:48;;;;;;;6.45;3.17;;;;;;;-0.46;100.00;93967.31;2095347;28;20087;-89
2021/10/14 00:15:49;;;;;;;7.30;2.83;;;;;;;-0.47;100.00;93959.75;2090931;28;20031;-89
2021/10/14 00:16:52;;;;;;;3.78;2.70;;;;;;;-0.41;100.00;93964.47;2082655;28;20048;-89
2021/10/14 00:17:53;;;;;;;3.30;2.80;;;;;;;-0.42;100.00;93970.06;2090951;28;20025;-88
2021/10/14 00:18:54;;;;;;;4.55;2.40;;;;;;;-0.46;100.00;93963.91;2099024;28;20025;-90
2021/10/14 00:19:55;;;;;;;3.50;3.00;;;;;;;-0.45;100.00;93968.06;2090970;28;20032;-87
2021/10/14 00:20:56;;;;;;;4.50;2.65;;;;;;;-0.49;100.00;93964.56;2091004;28;20032;-89
2021/10/14 00:21:57;;;;;;;2.97;2.67;;;;;;;-0.52;100.00;93960.75;2090943;28;20414;-89
2021/10/14 00:22:58;;;;;;;3.97;2.47;;;;;;;-0.54;100.00;93962.91;2082703;28;20529;-89
2021/10/14 00:23:59;;;;;;;3.78;2.80;;;;;;;-0.49;100.00;93961.94;2082886;28;20132;-90
2021/10/14 00:25:00;;;;;;;3.60;2.70;;;;;;;-0.39;100.00;93967.56;2099305;28;20025;-89
2021/10/14 00:26:01;;;;;;;4.68;3.05;;;;;;;-0.45;100.00;93976.72;2099115;28;20107;-89
2021/10/14 00:27:03;;;;;;;3.05;2.67;;;;;;;-0.43;100.00;93976.41;2099231;28;20428;-90
2021/10/14 00:28:04;;;;;;;5.80;2.78;;;;;;;-0.46;100.00;93971.78;2082612;28;20060;-91
2021/10/14 00:29:05;;;;;;;6.15;3.10;;;;;;;-0.45;100.00;93970.69;2085196;28;20033;-90
2021/10/14 00:30:06;;;;;;;3.70;2.63;;;;;;;-0.49;100.00;93964.56;2099155;28;20115;-89
2021/10/14 00:31:07;;;;;;;2.95;2.58;;;;;;;-0.49;100.00;93965.31;2099100;28;20088;-90
2021/10/14 00:32:08;;;;;;;3.67;2.60;;;;;;;-0.48;100.00;93966.88;2095906;28;20044;-90
2021/10/14 00:33:09;;;;;;;2.90;2.35;;;;;;;-0.55;100.00;93971.88;2099138;28;20032;-88
2021/10/14 00:34:10;;;;;;;4.15;3.05;;;;;;;-0.54;100.00;93970.78;2099463;28;20024;-89
2021/10/14 00:35:11;;;;;;;7.38;2.67;;;;;;;-0.56;100.00;93967.72;2108740;28;20337;-91
2021/10/14 00:36:12;;;;;;;2.88;2.33;;;;;;;-0.65;100.00;93961.78;2104887;28;20059;-90
2021/10/14 00:37:14;;;;;;;2.97;2.20;;;;;;;-0.61;100.00;93962.69;2084360;28;20049;-89
2021/10/14 00:38:15;;;;;;;2.53;2.30;;;;;;;-0.54;100.00;93961.03;2092973;28;20504;-89
2021/10/14 00:39:16;;;;;;;4.70;2.75;;;;;;;-0.55;100.00;93958.75;2099860;28;20035;-90
2021/10/14 00:40:18;;;;;;;3.67;2.25;;;;;;;-0.63;100.00;93956.97;2107179;28;20145;-90
2021/10/14 00:41:19;;;;;;;2.75;2.42;;;;;;;-0.62;100.00;93963.75;2103833;28;20029;-90
2021/10/14 00:42:19;;;;;;;2.60;2.40;;;;;;;-0.61;100.00;93958.19;2095000;28;20580;-90
2021/10/14 00:43:20;;;;;;;3.20;2.80;;;;;;;-0.64;100.00;93952.81;2082187;28;20038;-88
2021/10/14 00:44:21;;;;;;;3.00;2.70;;;;;;;-0.69;100.00;93961.66;2082539;28;20120;-89
2021/10/14 00:45:22;;;;;;;3.00;2.65;;;;;;;-0.78;100.00;93956.50;2090890;28;20029;-89
2021/10/14 00:46:24;;;;;;;3.33;2.40;;;;;;;-0.77;100.00;93955.41;2090783;28;20024;-88
2021/10/14 00:47:26;;;;;;;2.70;2.33;;;;;;;-0.73;100.00;93958.16;2082536;28;20033;-89
2021/10/14 00:48:27;;;;;;;2.92;2.40;;;;;;;-0.75;100.00;93952.44;2105082;28;20548;-89
2021/10/14 00:49:28;;;;;;;2.78;2.35;;;;;;;-0.69;100.00;93955.66;2098925;28;20091;-91
2021/10/14 00:50:29;;;;;;;2.80;2.50;;;;;;;-0.69;100.00;93956.41;2098873;28;20111;-89
2021/10/14 00:51:30;;;;;;;3.88;2.53;;;;;;;-0.63;100.00;93960.38;2107042;28;20048;-91
2021/10/14 00:52:33;;;;;;;2.67;2.47;;;;;;;-0.62;100.00;93953.25;2090438;28;20497;-89
2021/10/14 00:53:41;;;;;;;4.45;2.80;;;;;;;-0.73;100.00;93962.63;2082881;28;20048;-90
2021/10/14 00:54:46;;;;;;;2.53;2.30;;;;;;;-0.69;100.00;93951.16;2092353;28;20028;-90
2021/10/14 00:55:47;;;;;;;4.90;2.50;;;;;;;-0.67;100.00;93956.84;2090372;28;20029;-89
2021/10/14 00:56:48;;;;;;;3.40;2.50;;;;;;;-0.65;100.00;93959.16;2082466;28;20079;-90
2021/10/14 00:57:49;;;;;;;8.68;2.92;;;;;;;-0.80;100.00;93956.03;2083193;28;20036;-91
2021/10/14 00:58:50;;;;;;;3.45;2.30;;;;;;;-0.69;100.00;93963.53;2090672;28;20059;-90
2021/10/14 00:59:52;;;;;;;4.07;2.58;;;;;;;-0.80;100.00;93963.16;2090614;28;20020;-89
2021/10/14 01:00:53;;;;;;;2.88;2.38;;;;;;;-0.72;100.00;93959.69;2098768;28;20449;-90
2021/10/14 01:01:54;;;;;;;2.25;2.05;;;;;;;-0.69;100.00;93960.91;2090552;28;20029;-89
2021/10/14 01:02:56;;;;;;;3.88;2.83;;;;;;;-0.71;100.00;93971.72;2098699;28;20024;-88
2021/10/14 01:03:57;;;;;;;2.95;2.28;;;;;;;-0.70;100.00;93962.75;2107219;28;20035;-90
2021/10/14 01:04:59;;;;;;;3.38;2.55;;;;;;;-0.70;100.00;93960.13;2107040;28;20023;-90
2021/10/14 01:06:00;;;;;;;3.60;2.50;;;;;;;-0.72;100.00;93962.31;2107194;28;20024;-90
2021/10/14 01:07:02;;;;;;;2.00;1.88;;;;;;;-0.78;100.00;93963.59;2107017;28;20020;-91
2021/10/14 01:08:03;;;;;;;2.65;2.45;;;;;;;-0.82;100.00;93963.47;2109129;28;20043;-91
2021/10/14 01:09:04;;;;;;;2.42;2.22;;;;;;;-0.87;100.00;93961.06;2098626;28;20409;-91
2021/10/14 01:10:06;;;;;;;3.40;2.50;;;;;;;-0.90;100.00;93960.94;2098724;28;20032;-91
2021/10/14 01:11:09;;;;;;;2.92;2.42;;;;;;;-0.96;100.00;93965.63;2090435;28;20055;-89
2021/10/14 01:12:11;;;;;;;7.18;2.30;;;;;;;-1.05;100.00;93957.03;2082676;28;20029;-89
2021/10/14 01:13:12;;;;;;;2.40;2.20;;;;;;;-0.91;100.00;93954.16;2090546;28;20029;-90
2021/10/14 01:14:13;;;;;;;3.38;2.40;;;;;;;-0.99;100.00;93952.38;2098807;28;20460;-89
2021/10/14 01:15:26;;;;;;;5.75;2.85;;;;;;;-0.91;100.00;93959.41;2098758;28;20036;-88
2021/10/14 01:16:27;;;;;;;2.63;2.35;;;;;;;-0.85;100.00;93953.63;2098714;28;20028;-89
2021/10/14 01:17:28;;;;;;;3.55;2.30;;;;;;;-0.86;100.00;93954.72;2082256;28;20048;-88
2021/10/14 01:18:29;;;;;;;2.40;2.20;;;;;;;-0.78;100.00;93955.72;2090408;28;20056;-89
2021/10/14 01:19:30;;;;;;;2.50;2.30;;;;;;;-0.79;100.00;93947.09;2098673;28;20158;-88
2021/10/14 01:20:31;;;;;;;2.50;2.30;;;;;;;-0.88;100.00;93945.63;2098787;28;20028;-89
2021/10/14 01:21:32;;;;;;;3.55;2.30;;;;;;;-0.79;100.00;93949.72;2098753;28;20028;-89
2021/10/14 01:22:33;;;;;;;2.45;2.25;;;;;;;-0.80;100.00;93945.53;2098457;28;20077;-90
2021/10/14 01:23:36;;;;;;;3.85;2.42;;;;;;;-0.84;100.00;93939.41;2098450;28;20509;-89
2021/10/14 01:24:37;;;;;;;4.57;2.00;;;;;;;-0.74;100.00;93938.25;2090648;28;20119;-90
2021/10/14 01:25:38;;;;;;;2.50;2.30;;;;;;;-0.84;100.00;93941.25;2090179;28;20055;-91
2021/10/14 01:26:40;;;;;;;3.30;2.58;;;;;;;-0.85;100.00;93932.63;2090172;28;20037;-89
2021/10/14 01:27:41;;;;;;;4.32;2.40;;;;;;;-0.98;100.00;93941.53;2098464;28;20028;-91
2021/10/14 01:28:42;;;;;;;2.25;2.05;;;;;;;-1.05;100.00;93941.31;2098396;28;20025;-90
2021/10/14 01:29:43;;;;;;;4.07;2.08;;;;;;;-1.12;100.00;93936.56;2096086;28;20036;-89
2021/10/14 01:30:44;;;;;;;7.03;2.10;;;;;;;-1.17;100.00;93934.16;2098411;28;20024;-90
2021/10/14 01:31:45;;;;;;;2.38;2.13;;;;;;;-1.11;100.00;93938.09;2082119;28;20025;-89
2021/10/14 01:32:49;;;;;;;2.30;2.10;;;;;;;-1.01;100.00;93934.31;2073944;28;20034;-89
2021/10/14 01:33:50;;;;;;;2.72;2.10;;;;;;;-0.90;100.00;93929.44;2074573;28;20093;-89
2021/10/14 01:34:51;;;;;;;3.33;2.17;;;;;;;-0.91;100.00;93933.16;2082107;28;20120;-90
2021/10/14 01:35:52;;;;;;;2.15;1.95;;;;;;;-0.98;100.00;93933.66;2106775;28;20020;-91
2021/10/14 01:36:53;;;;;;;3.22;2.65;;;;;;;-1.05;100.00;93938.69;2098493;28;20412;-90
2021/10/14 01:37:55;;;;;;;2.35;2.15;;;;;;;-0.99;100.00;93934.00;2098638;28;20470;-89
2021/10/14 01:38:56;;;;;;;5.30;2.10;;;;;;;-0.93;100.00;93924.81;2090284;28;20036;-89
2021/10/14 01:39:58;;;;;;;2.30;2.10;;;;;;;-1.05;100.00;93930.81;2082469;28;20021;-89
2021/10/14 01:40:59;;;;;;;1.98;1.80;;;;;;;-0.96;100.00;93928.13;2083662;28;20120;-90
2021/10/14 01:42:00;;;;;;;2.40;2.20;;;;;;;-0.94;100.00;93931.94;2081821;28;20079;-89
2021/10/14 01:43:01;;;;;;;5.43;2.63;;;;;;;-0.88;100.00;93935.91;2090272;28;20024;-89
2021/10/14 01:44:03;;;;;;;3.60;2.30;;;;;;;-0.85;100.00;93937.09;2096228;28;20131;-89
2021/10/14 01:45:05;;;;;;;2.38;2.17;;;;;;;-0.88;100.00;93935.91;2098442;28;20751;-89
2021/10/14 01:46:06;;;;;;;3.17;2.30;;;;;;;-0.85;100.00;93934.47;2106707;28;20123;-89
2021/10/14 01:47:07;;;;;;;4.10;2.53;;;;;;;-0.91;100.00;93941.78;2103753;28;20029;-91
2021/10/14 01:48:08;;;;;;;3.67;2.13;;;;;;;-0.90;100.00;93943.31;2098457;28;20024;-90
2021/10/14 01:49:09;;;;;;;3.67;2.58;;;;;;;-0.97;100.00;93937.06;2106623;28;20028;-89
2021/10/14 01:50:10;;;;;;;5.82;2.33;;;;;;;-1.07;100.00;93952.09;2106681;28;20385;-90
2021/10/14 01:51:11;;;;;;;2.47;1.73;;;;;;;-0.95;100.00;93953.25;2105829;28;20028;-89
2021/10/14 01:52:13;;;;;;;3.90;2.33;;;;;;;-0.92;100.00;93949.97;2098455;28;20082;-90
2021/10/14 01:53:14;;;;;;;2.80;2.05;;;;;;;-1.03;100.00;93952.22;2106740;28;20511;-89
2021/10/14 01:54:16;;;;;;;2.53;1.90;;;;;;;-1.04;100.00;93958.56;2098436;28;20164;-91
2021/10/14 01:55:17;;;;;;;4.55;2.85;;;;;;;-1.21;100.00;93958.72;2098652;28;20082;-90
2021/10/14 01:56:18;;;;;;;3.90;2.40;;;;;;;-1.21;100.00;93954.22;2100928;28;20082;-89
2021/10/14 01:57:19;;;;;;;3.55;2.33;;;;;;;-1.17;100.00;93957.75;2089997;28;20031;-90
2021/10/14 01:58:21;;;;;;;2.42;2.15;;;;;;;-1.04;100.00;93954.09;2090008;28;20025;-91
2021/10/14 01:59:21;;;;;;;2.72;2.05;;;;;;;-1.08;100.00;93955.06;2098273;28;20417;-90
2021/10/14 02:00:22;;;;;;;4.85;2.30;;;;;;;-1.18;100.00;93956.22;2098247;28;20024;-89
2021/10/14 02:01:23;;;;;;;4.22;2.20;;;;;;;-1.15;100.00;93957.41;2098349;28;20034;-90
2021/10/14 02:02:24;;;;;;;4.88;2.22;;;;;;;-1.07;100.00;93954.72;2098269;28;20516;-91
2021/10/14 02:03:27;;;;;;;5.88;2.40;;;;;;;-1.01;100.00;93952.66;2090190;28;20482;-89
2021/10/14 02:04:28;;;;;;;4.95;2.53;;;;;;;-0.99;100.00;93952.38;2090267;28;20029;-90
2021/10/14 02:05:29;;;;;;;2.53;2.30;;;;;;;-0.95;100.00;93953.25;2091549;28;20039;-90
2021/10/14 02:06:30;;;;;;;3.38;2.30;;;;;;;-0.97;100.00;93955.41;2098408;28;20444;-91
2021/10/14 02:07:31;;;;;;;2.55;2.20;;;;;;;-0.95;100.00;93959.28;2098247;28;20031;-90
2021/10/14 02:08:32;;;;;;;5.13;2.33;;;;;;;-1.08;100.00;93955.81;2098289;28;20074;-89
2021/10/14 02:09:33;;;;;;;3.25;2.30;;;;;;;-1.12;100.00;93964.66;2089998;28;20115;-90
2021/10/14 02:10:34;;;;;;;3.28;2.40;;;;;;;-1.24;100.00;93965.34;2090147;28;20470;-90
2021/10/14 02:11:35;;;;;;;3.28;2.70;;;;;;;-1.18;100.00;93963.31;2090026;28;20050;-91
2021/10/14 02:12:37;;;;;;;2.58;2.17;;;;;;;-1.21;100.00;93962.09;2098200;28;20505;-90
2021/10/14 02:13:39;;;;;;;3.28;2.45;;;;;;;-1.29;100.00;93957.69;2098471;28;20025;-90
2021/10/14 02:14:40;;;;;;;2.38;2.03;;;;;;;-1.26;100.00;93951.81;2098465;28;20389;-91
2021/10/14 02:15:41;;;;;;;3.53;1.77;;;;;;;-1.29;100.00;93950.56;2095135;28;20031;-90
2021/10/14 02:16:43;;;;;;;2.70;1.83;;;;;;;-1.26;100.00;93954.44;2098308;28;20039;-90
2021/10/14 02:17:44;;;;;;;2.20;1.88;;;;;;;-1.19;100.00;93952.03;2098043;28;20074;-88
2021/10/14 02:18:45;;;;;;;2.55;2.22;;;;;;;-1.20;100.00;93937.41;2098074;28;20439;-90
2021/10/14 02:19:46;;;;;;;4.60;2.22;;;;;;;-1.22;100.00;93941.44;2082064;28;20017;-91
2021/10/14 02:20:47;;;;;;;4.60;2.40;;;;;;;-1.28;100.00;93941.63;2081674;28;20065;-88
2021/10/14 02:21:48;;;;;;;3.40;2.17;;;;;;;-1.38;100.00;93930.75;2075620;28;20430;-89
2021/10/14 02:22:49;;;;;;;2.63;2.25;;;;;;;-1.26;100.00;93938.69;2098431;28;20158;-90
2021/10/14 02:23:50;;;;;;;2.40;2.20;;;;;;;-1.19;100.00;93935.53;2098161;28;20028;-90
2021/10/14 02:24:51;;;;;;;4.03;1.92;;;;;;;-1.20;100.00;93937.41;2090033;28;20021;-90
2021/10/14 02:25:52;;;;;;;2.25;1.90;;;;;;;-1.20;100.00;93937.41;2098219;28;20543;-90
2021/10/14 02:26:53;;;;;;;2.60;1.73;;;;;;;-1.18;100.00;93937.88;2098285;28;20473;-89
2021/10/14 02:27:54;;;;;;;3.78;2.17;;;;;;;-1.18;100.00;93944.97;2106557;28;20047;-90
2021/10/14 02:28:55;;;;;;;3.47;1.83;;;;;;;-1.14;100.00;93945.84;2106677;28;20027;-90
2021/10/14 02:29:56;;;;;;;2.67;2.00;;;;;;;-1.15;100.00;93937.19;2098011;28;20108;-90
2021/10/14 02:30:57;;;;;;;3.58;2.00;;;;;;;-1.13;100.00;93942.91;2089870;28;20021;-89
2021/10/14 02:31:58;;;;;;;2.63;1.90;;;;;;;-1.13;100.00;93942.91;2090089;28;20444;-90
2021/10/14 02:32:59;;;;;;;4.13;1.90;;;;;;;-1.20;100.00;93937.41;2098264;28;20032;-90
2021/10/14 02:34:00;;;;;;;2.70;2.03;;;;;;;-1.21;100.00;93940.34;2089863;28;20044;-91
2021/10/14 02:35:01;;;;;;;4.53;2.42;;;;;;;-1.22;100.00;93939.59;2081633;28;20072;-89
2021/10/14 02:36:02;;;;;;;1.95;1.73;;;;;;;-1.19;100.00;93938.94;2081766;28;20022;-90
2021/10/14 02:37:03;;;;;;;2.47;2.28;;;;;;;-1.16;100.00;93934.91;2081823;28;20535;-89
2021/10/14 02:38:04;;;;;;;2.28;1.92;;;;;;;-1.11;100.00;93940.72;2089874;28;20039;-90
2021/10/14 02:39:05;;;;;;;3.03;2.03;;;;;;;-1.15;100.00;93939.81;2081755;28;20422;-90
2021/10/14 02:40:07;;;;;;;2.13;1.92;;;;;;;-1.18;100.00;93943.09;2089921;28;20096;-91
2021/10/14 02:41:08;;;;;;;2.03;1.73;;;;;;;-1.28;100.00;93935.59;2098420;28;20126;-90
2021/10/14 02:42:09;;;;;;;2.22;2.00;;;;;;;-1.32;100.00;93935.50;2098105;28;20074;-90
2021/10/14 02:43:10;;;;;;;2.30;1.90;;;;;;;-1.27;100.00;93939.78;2098108;28;20055;-90
2021/10/14 02:44:11;;;;;;;2.45;1.90;;;;;;;-1.39;100.00;93942.34;2089720;28;20025;-90
2021/10/14 02:45:12;;;;;;;1.88;1.65;;;;;;;-1.33;100.00;93943.66;2081830;28;20387;-90
2021/10/14 02:46:13;;;;;;;1.83;1.63;;;;;;;-1.31;100.00;93938.88;2081733;28;20021;-89
2021/10/14 02:47:14;;;;;;;2.08;1.70;;;;;;;-1.31;100.00;93938.88;2090070;28;20029;-88
2021/10/14 02:48:15;;;;;;;2.05;1.80;;;;;;;-1.29;100.00;93940.09;2098324;28;20107;-90
2021/10/14 02:49:16;;;;;;;2.75;2.00;;;;;;;-1.34;100.00;93939.53;2098117;28;20048;-90
2021/10/14 02:50:17;;;;;;;2.65;1.83;;;;;;;-1.35;100.00;93945.84;2097964;28;20021;-89
2021/10/14 02:51:18;;;;;;;1.95;1.75;;;;;;;-1.31;100.00;93944.13;2089756;28;20355;-90
2021/10/14 02:52:19;;;;;;;3.15;2.00;;;;;;;-1.29;100.00;93941.94;2090068;28;20029;-90
2021/10/14 02:53:20;;;;;;;3.45;2.17;;;;;;;-1.34;100.00;93942.16;2106690;28;20026;-89
2021/10/14 02:54:21;;;;;;;2.45;2.25;;;;;;;-1.29;100.00;93945.34;2106550;28;20031;-89
2021/10/14 02:55:22;;;;;;;7.30;2.30;;;;;;;-1.35;100.00;93945.84;2098159;28;20025;-92
2021/10/14 02:56:23;;;;;;;2.97;2.15;;;;;;;-1.30;100.00;93945.66;2089690;28;20445;-90
2021/10/14 02:57:23;;;;;;;2.33;2.00;;;;;;;-1.36;100.00;93945.09;2098228;28;20066;-91
2021/10/14 02:58:24;;;;;;;3.30;1.73;;;;;;;-1.30;100.00;93946.44;2089920;28;20025;-90
2021/10/14 02:59:25;;;;;;;2.60;1.92;;;;;;;-1.31;100.00;93947.53;2081865;28;20032;-89
2021/10/14 03:00:26;;;;;;;2.40;2.10;;;;;;;-1.35;100.00;93943.22;2081829;28;20414;-90
2021/10/14 03:01:27;;;;;;;5.38;2.15;;;;;;;-1.34;100.00;93942.16;2081368;28;20117;-89
2021/10/14 03:02:28;;;;;;;2.33;2.13;;;;;;;-1.41;100.00;93947.13;2082735;28;20645;-91
2021/10/14 03:03:32;;;;;;;2.90;2.30;;;;;;;-1.40;100.00;93933.72;2099917;28;20055;-90
2021/10/14 03:04:33;;;;;;;3.92;1.92;;;;;;;-1.39;100.00;93935.25;2099712;28;20036;-89
2021/10/14 03:05:35;;;;;;;3.00;2.13;;;;;;;-1.29;100.00;93941.94;2091519;28;20112;-90
2021/10/14 03:06:36;;;;;;;2.25;2.05;;;;;;;-1.22;100.00;93938.81;2083230;28;20025;-90
2021/10/14 03:07:37;;;;;;;2.90;2.05;;;;;;;-1.19;100.00;93935.53;2083221;28;20025;-89
2021/10/14 03:08:38;;;;;;;3.72;1.98;;;;;;;-1.32;100.00;93943.38;2091280;28;20025;-88
2021/10/14 03:09:39;;;;;;;2.33;1.95;;;;;;;-1.44;100.00;93937.28;2083341;28;20108;-91
2021/10/14 03:10:40;;;;;;;2.08;1.85;;;;;;;-1.50;100.00;93941.94;2098375;28;20124;-90
2021/10/14 03:11:41;;;;;;;3.08;1.98;;;;;;;-1.42;100.00;93940.34;2099510;28;20025;-90
2021/10/14 03:12:42;;;;;;;2.53;2.10;;;;;;;-1.38;100.00;93938.63;2083068;28;20098;-90
2021/10/14 03:13:43;;;;;;;2.30;2.10;;;;;;;-1.47;100.00;93935.28;2091538;28;20112;-89
2021/10/14 03:14:44;;;;;;;2.38;2.17;;;;;;;-1.38;100.00;93936.00;2091288;28;20025;-89
2021/10/14 03:15:45;;;;;;;1.90;1.70;;;;;;;-1.41;100.00;93939.25;2083215;28;20097;-90
2021/10/14 03:16:46;;;;;;;4.30;2.28;;;;;;;-1.42;100.00;93940.34;2083187;28;20025;-91
2021/10/14 03:17:47;;;;;;;2.15;1.92;;;;;;;-1.51;100.00;93940.41;2091373;28;20028;-90
2021/10/14 03:18:49;;;;;;;2.15;1.95;;;;;;;-1.45;100.00;93938.34;2099692;28;20024;-89
2021/10/14 03:19:50;;;;;;;2.53;2.30;;;;;;;-1.47;100.00;93943.94;2099561;28;20062;-90
2021/10/14 03:20:51;;;;;;;3.58;2.20;;;;;;;-1.48;100.00;93941.63;2083053;28;20643;-90
2021/10/14 03:21:52;;;;;;;2.17;1.98;;;;;;;-1.48;100.00;93944.25;2091091;28;20067;-91
2021/10/14 03:22:53;;;;;;;4.50;2.30;;;;;;;-1.41;100.00;93941.88;2091327;28;20501;-89
2021/10/14 03:23:54;;;;;;;3.33;2.17;;;;;;;-1.38;100.00;93941.25;2108045;28;20425;-90
2021/10/14 03:24:55;;;;;;;2.08;1.88;;;;;;;-1.40;100.00;93938.19;2107997;28;20496;-90
2021/10/14 03:25:56;;;;;;;4.57;2.53;;;;;;;-1.39;100.00;93942.34;2094247;28;20063;-89
2021/10/14 03:26:56;;;;;;;2.72;2.35;;;;;;;-1.32;100.00;93951.22;2099671;28;20027;-88
2021/10/14 03:27:57;;;;;;;5.00;2.20;;;;;;;-1.41;100.00;93945.25;2099533;28;20036;-88
2021/10/14 03:28:58;;;;;;;2.75;2.13;;;;;;;-1.51;100.00;93956.13;2107951;28;20420;-89
2021/10/14 03:29:59;;;;;;;2.65;2.00;;;;;;;-1.47;100.00;93954.41;2099376;28;20520;-90
2021/10/14 03:31:00;;;;;;;3.40;2.28;;;;;;;-1.59;100.00;93956.94;2083320;28;20025;-90
2021/10/14 03:32:02;;;;;;;2.08;1.70;;;;;;;-1.58;100.00;93954.03;2083052;28;20051;-90
2021/10/14 03:33:03;;;;;;;3.28;2.17;;;;;;;-1.65;100.00;93953.75;2099415;28;20462;-90
2021/10/14 03:34:04;;;;;;;4.55;3.35;;;;;;;-1.59;100.00;93952.47;2099331;28;20121;-91
2021/10/14 03:35:05;;;;;;;2.63;2.08;;;;;;;-1.63;100.00;93962.06;2099307;28;20028;-90
2021/10/14 03:36:06;;;;;;;3.65;2.13;;;;;;;-1.50;100.00;93954.28;2107692;28;20386;-90
2021/10/14 03:37:07;;;;;;;3.75;2.45;;;;;;;-1.58;100.00;93956.66;2091484;28;20224;-90
2021/10/14 03:38:08;;;;;;;3.65;2.03;;;;;;;-1.65;100.00;93961.63;2107980;28;20473;-90
2021/10/14 03:39:09;;;;;;;5.10;2.72;;;;;;;-1.59;100.00;93960.34;2099395;28;20032;-90
2021/10/14 03:40:10;;;;;;;2.95;2.60;;;;;;;-1.64;100.00;93968.38;2091580;28;20017;-91
2021/10/14 03:41:11;;;;;;;5.15;2.53;;;;;;;-1.56;100.00;93959.72;2099440;28;20028;-90
2021/10/14 03:42:13;;;;;;;3.40;2.53;;;;;;;-1.47;100.00;93961.50;2091190;28;20071;-89
2021/10/14 03:43:16;;;;;;;6.38;3.05;;;;;;;-1.43;100.00;93955.31;2083322;28;20048;-89
2021/10/14 03:44:17;;;;;;;4.28;2.85;;;;;;;-1.50;100.00;93968.16;2091667;28;20033;-91
2021/10/14 03:45:18;;;;;;;3.20;2.60;;;;;;;-1.47;100.00;93966.75;2099742;28;20024;-90
2021/10/14 03:46:19;;;;;;;3.67;3.15;;;;;;;-1.53;100.00;93961.69;2091416;28;20036;-90
2021/10/14 03:47:20;;;;;;;3.40;2.65;;;;;;;-1.65;100.00;93958.22;2099576;28;20029;-90
2021/10/14 03:48:21;;;;;;;4.50;2.88;;;;;;;-1.60;100.00;93971.16;2090897;28;20037;-90
2021/10/14 03:49:22;;;;;;;4.43;2.95;;;;;;;-1.64;100.00;93963.16;2083465;28;20053;-90
2021/10/14 03:50:23;;;;;;;3.45;3.05;;;;;;;-1.58;100.00;93966.34;2091240;28;20158;-90
2021/10/14 03:51:25;;;;;;;3.83;3.28;;;;;;;-1.58;100.00;93964.50;2099630;28;20035;-90
2021/10/14 03:52:26;;;;;;;4.38;2.45;;;;;;;-1.59;100.00;93970.81;2099393;28;20028;-88
2021/10/14 03:53:27;;;;;;;4.40;3.13;;;;;;;-1.49;100.00;93966.28;2091256;28;20024;-90
2021/10/14 03:54:28;;;;;;;3.63;2.45;;;;;;;-1.45;100.00;93972.44;2099255;28;20034;-90
2021/10/14 03:55:29;;;;;;;5.13;2.53;;;;;;;-1.54;100.00;93969.88;2099289;28;20114;-90
2021/10/14 03:56:30;;;;;;;3.03;2.40;;;;;;;-1.46;100.00;93973.53;2107551;28;20030;-89
2021/10/14 03:57:31;;;;;;;3.28;2.35;;;;;;;-1.59;100.00;93981.31;2107647;28;20032;-89
2021/10/14 03:58:32;;;;;;;3.65;2.65;;;;;;;-1.53;100.00;93972.19;2091269;28;20025;-89
2021/10/14 03:59:33;;;;;;;3.10;2.28;;;;;;;-1.50;100.00;93977.88;2083054;28;20075;-88
2021/10/14 04:00:34;;;;;;;3.47;2.33;;;;;;;-1.44;100.00;93977.38;2082678;28;20080;-90
2021/10/14 04:01:35;;;;;;;2.22;2.03;;;;;;;-1.43;100.00;93978.91;2091235;28;20536;-88
2021/10/14 04:02:38;;;;;;;3.45;2.88;;;;;;;-1.60;100.00;93977.16;2099327;28;20040;-90
2021/10/14 04:03:40;;;;;;;3.30;2.67;;;;;;;-1.62;100.00;93979.34;2091624;28;20025;-89
2021/10/14 04:04:42;;;;;;;2.45;2.25;;;;;;;-1.58;100.00;93976.81;2090928;28;20043;-89
2021/10/14 04:05:43;;;;;;;2.72;1.98;;;;;;;-1.54;100.00;93977.72;2091329;28;20111;-89
2021/10/14 04:06:44;;;;;;;3.25;2.35;;;;;;;-1.64;100.00;93983.34;2107586;28;20028;-89
2021/10/14 04:07:45;;;;;;;6.93;2.47;;;;;;;-1.73;100.00;93980.78;2107799;28;20107;-89
2021/10/14 04:08:46;;;;;;;4.53;2.63;;;;;;;-1.67;100.00;93982.13;2099165;28;20032;-90
2021/10/14 04:09:47;;;;;;;3.47;2.10;;;;;;;-1.65;100.00;93981.81;2099176;28;20024;-89
2021/10/14 04:10:48;;;;;;;2.35;2.13;;;;;;;-1.64;100.00;93989.34;2099095;28;20021;-89
2021/10/14 04:11:49;;;;;;;2.40;2.20;;;;;;;-1.66;100.00;93985.53;2091364;28;20020;-89
2021/10/14 04:12:50;;;;;;;2.65;2.30;;;;;;;-1.78;100.00;93992.22;2099233;28;20098;-88
2021/10/14 04:13:50;;;;;;;3.95;2.17;;;;;;;-1.80;100.00;93991.75;2098491;28;20025;-89
2021/10/14 04:14:52;;;;;;;2.65;2.13;;;;;;;-1.72;100.00;93990.16;2099199;28;20115;-88
2021/10/14 04:15:53;;;;;;;2.17;1.92;;;;;;;-1.68;100.00;93983.22;2107487;28;20119;-90
2021/10/14 04:16:54;;;;;;;2.30;2.10;;;;;;;-1.62;100.00;93987.19;2107590;28;20073;-88
2021/10/14 04:17:55;;;;;;;3.03;2.00;;;;;;;-1.62;100.00;93983.81;2098938;28;20093;-89
2021/10/14 04:18:56;;;;;;;2.50;2.30;;;;;;;-1.58;100.00;93987.31;2097147;28;20029;-88
2021/10/14 04:19:57;;;;;;;3.42;2.38;;;;;;;-1.61;100.00;93990.59;2105131;28;20081;-90
2021/10/14 04:20:58;;;;;;;2.53;2.28;;;;;;;-1.63;100.00;93984.88;2093672;28;20040;-89
2021/10/14 04:21:59;;;;;;;3.42;2.53;;;;;;;-1.75;100.00;93979.56;2090028;28;20445;-89
2021/10/14 04:23:00;;;;;;;4.50;2.70;;;;;;;-1.77;100.00;93974.63;2091040;28;20029;-90
2021/10/14 04:24:01;;;;;;;3.70;2.90;;;;;;;-1.71;100.00;93978.63;2082752;28;20427;-89
2021/10/14 04:25:03;;;;;;;4.72;3.20;;;;;;;-1.73;100.00;93972.91;2091470;28;20025;-89
2021/10/14 04:26:04;;;;;;;3.90;2.92;;;;;;;-1.63;100.00;93975.16;2091332;28;20033;-91
2021/10/14 04:27:06;;;;;;;3.30;2.35;;;;;;;-1.57;100.00;93970.53;2074667;28;20120;-88
2021/10/14 04:28:07;;;;;;;3.42;3.13;;;;;;;-1.53;100.00;93971.44;2083005;28;20021;-89
2021/10/14 04:29:08;;;;;;;3.88;3.00;;;;;;;-1.54;100.00;93973.28;2090981;28;20032;-90
2021/10/14 04:30:09;;;;;;;3.00;2.72;;;;;;;-1.48;100.00;93973.09;2090766;28;20035;-88
2021/10/14 04:31:10;;;;;;;5.45;3.33;;;;;;;-1.60;100.00;93976.38;2082703;28;20121;-89
2021/10/14 04:32:11;;;;;;;3.67;3.20;;;;;;;-1.56;100.00;93978.06;2074533;28;20057;-89
2021/10/14 04:33:13;;;;;;;4.03;3.50;;;;;;;-1.63;100.00;93975.16;2074382;28;20029;-89
2021/10/14 04:34:15;;;;;;;3.58;3.28;;;;;;;-1.61;100.00;93980.09;2090887;28;20494;-88
2021/10/14 04:35:16;;;;;;;4.35;3.60;;;;;;;-1.53;100.00;93972.19;2099374;28;20030;-89
2021/10/14 04:36:17;;;;;;;3.83;3.20;;;;;;;-1.61;100.00;93973.00;2107525;28;20552;-88
2021/10/14 04:37:18;;;;;;;4.28;2.83;;;;;;;-1.56;100.00;93967.56;2090708;28;20029;-88
2021/10/14 04:38:19;;;;;;;4.20;3.08;;;;;;;-1.54;100.00;93970.66;2086675;28;20032;-87
2021/10/14 04:39:21;;;;;;;3.50;3.20;;;;;;;-1.52;100.00;93972.94;2090713;28;20107;-89
2021/10/14 04:40:22;;;;;;;2.85;2.65;;;;;;;-1.60;100.00;93977.16;2082635;28;20105;-89
2021/10/14 04:41:23;;;;;;;4.00;2.60;;;;;;;-1.61;100.00;93972.25;2082696;28;20060;-89
2021/10/14 04:42:24;;;;;;;2.75;2.55;;;;;;;-1.57;100.00;93966.03;2082468;28;20040;-90
2021/10/14 04:43:25;;;;;;;2.60;2.40;;;;;;;-1.54;100.00;93973.28;2082522;28;20030;-90
2021/10/14 04:44:26;;;;;;;3.40;2.83;;;;;;;-1.54;100.00;93975.91;2099026;28;20079;-88